Aviation Digital Data Service (ADDS)

Output produced by METARs form (0208 UTC 16 January 2019)
found at http://www.aviationweather.gov/metar/data/
 
TAF SBAT 152200Z 1600/1612 11004KT 9999 FEW015 TN20/1608Z TX25/1612Z 
     BECMG 1609/1611 SCT010 RMK PEP
       
TAF SBAN 152200Z 1600/1612 33003KT 9999 FEW035 FEW045TCU TN17/1607Z TX21/1611Z 
     PROB30 1600/1602 TS FEW035 FEW045CB 
     BECMG 1602/1604 CAVOK 
     BECMG 1606/1608 16006KT 9999 FEW020 RMK PEJ
       
TAF SBAR 160100Z 1606/1618 10007KT 9999 SCT017 TN26/1607Z TX30/1615Z 
     BECMG 1611/1612 12011KT RMK PEU
       
TAF SBBG 160200Z 1606/1706 27010KT 8000 BKN008 TX28/1618Z TN22/1706Z 
     BECMG 1610/1612 9999 NSW BKN012 
     BECMG 1612/1614 BKN020 
     BECMG 1700/1702 12005KT BKN010 RMK PDW
       
TAF SBBW 152200Z 1600/1612 00000KT 9999 SCT020 TX26/1600Z TN21/1608Z 
     BECMG 1602/1604 CAVOK 
     BECMG 1609/1610 24002KT 9999 FEW005 RMK PEJ
       
TAF SBBU 152200Z 1600/1612 14007KT CAVOK TX29/1600Z TN26/1608Z RMK PEB
       
TAF SBBE 152200Z 1600/1624 08005KT 9999 FEW017 TN23/1608Z TX27/1617Z 
     BECMG 1604/1606 SCT010 
     BECMG 1611/1613 09005KT SCT017 
     BECMG 1615/1617 0301 0KT SCT025 FEW030TCU 
     PROB30 
     TEMPO 1619/1620 TS SCT025 FEW030CB 
     BECMG 162 1/1623 06005KT FEW025 RMK PEP
       
TAF SBCF 152200Z 1600/1624 09008KT 9999 FEW040 TN19/1608Z TX31/1618Z 
     PROB30 1600/1603 TS FEW040 FEW045CB 
     BECMG 1602/1603 10005KT CAVOK 
     BECMG 1610/1612 02007KT 9999 SCT030 
     BECMG 1614/1616 SCT040 
     PROB30 1620/1623 TS SCT040 FEW045CB 
     BECMG 1621/1622 08008KT FEW045 RMK PEJ
       
TAF SBBV 152200Z 1600/1624 10008KT CAVOK TN25/1607Z TX33/1618Z 
     BECMG 1610/1612 11012KT SCT030 
     BECMG 1616/1618 09010KT SCT040 
     BECMG 1621/1623 CAVOK RMK PEP
       
TAF SBLP 152200Z 1600/1612 21006KT 9999 SCT030 TX30/1600Z TN25/1608Z 
     PROB30 1600/1602 TS SCT015 FEW025CB RMK PEU
       
TAF SBBR 152200Z 1600/1624 10006KT 9999 FEW040 TN19/1608Z TX31/1618Z 
     PROB30 1600/1602 TS FEW040 FEW045CB 
     BECMG 1601/1603 20002KT CAVOK 
     BECMG 1610/1612 07010KT 9999 FEW030 
     BECMG 1614/1615 BKN040 
     BECMG 1616/1617 BKN040 FEW048TCU 
     PROB30 
     TEMPO 1619/1623 TSRA SCT040 FEW045CB 
     BECMG 1620/1621 09007KT SCT040 FEW045TCU RMK PEJ
       
TAF SBCB 152030Z 1600/1624 08010KT 9999 FEW020 TN24/1608Z TX32/1616Z 
     BECMG 1611/1613 10020KT 
     BECMG 1615/1617 FEW030TCU RMK PHI
       
TAF SBKG 152200Z 1600/1612 13007KT 9000 SCT015 TN21/1607Z TX25/1611Z 
     PROB40 1603/1611 BKN011 RMK PEU
       
TAF SBKP 160130Z 1606/1706 14005KT 9999 FEW045 TN22/1608Z TX33/1617Z 
     BECMG 1609/1611 02005KT CAVOK 
     BECMG 1613/1615 33007KT SCT030 
     BECMG 1615/1617 SCT040 FEW045TCU 
     PROB40 1617/1622 17010KT 9000 TSRA SCT045 FEW050CB 
     BECMG 1622/1624 10005KT CAVOK RMK PGL
       
TAF SBCG 160200Z 1606/1706 36004KT CAVOK TN23/1608Z TX32/1617Z 
     BECMG 1613/1615 33008KT 9999 SCT045 FEW050TCU 
     BECMG 1622/1624 03005KT CAVOK RMK PDW
       
TAF SBCP 152030Z 1600/1612 06005KT CAVOK TN24/1609Z TX30/1612Z RMK PHI
       
TAF SBCR 160200Z 1606/1706 06005KT CAVOK TN25/1608Z TX36/1619Z 
     BECMG 1613/1615 03008KT 9999 FEW030 
     BECMG 1620/1622 06007KT CAVOK RMK PDW
       
TAF SBCZ 152200Z 1600/1624 31005KT 9999 SCT020 TN22/1607Z TX30/1617Z 
     BECMG 1606/1608 00000KT 6000 SCT008 
     BECMG 1612/1614 12005KT SCT020 
     BECMG 1 617/1619 SCT030 FEW036TCU RMK PEP
       
TAF SBCY 152200Z 1600/1624 32003KT 9999 FEW020 TN21/1607Z TX30/1618Z 
     PROB40 1606/1608 SCT005 
     BECMG 1611/1613 31010KT SCT025 
     BECMG 1615/1617 33008KT SCT025 FEW030TCU 
     BECMG 1621/1623 36003KT FEW020 RMK PEP
       
TAF SBCT 160200Z 1606/1706 33005KT 9999 FEW010 TN19/1608Z TX31/1617Z 
     PROB30 
     TEMPO 1608/1610 6000 FEW002 
     BECMG 1612/1614 29010KT FEW030 
     BECMG 1622/1624 VCTS FEW010 SCT040 FEW045CB 
     BECMG 1702/1704 08005KT BKN010 RMK PDW
       
TAF SBBI 151500Z 1518/1606 32006KT 9999 SCT030 FEW035TCU TX28/1518Z TN21/1606Z 
     TEMPO 1518/1522 VCTS BKN035 FEW040CB 
     BECMG 1522/1524 8000 TSRA BKN010 FEW040CB 
     BECMG 1600/1602 05005KT 9999 NSW BKN008 RMK PDJ
       
TAF SBFN 160100Z 1606/1618 11010KT 7000 SCT010 BKN020 TN25/1608Z TX28 /1617Z 
     PROB30 1609/1611 BKN013 
     BECMG 1615/1616 SCT017 RMK PEU
       
TAF SBFL 160200Z 1606/1706 36007KT 9999 SCT030 TN24/1608Z TX34/1617Z 
     BECMG 1608/1610 CAVOK 
     BECMG 1614/1616 9999 FEW030 
     BECMG 1617/1619 FEW030TCU 
     BECMG 1623/1701 VCTS SCT020 FEW030CB 
     BECMG 1703/1705 12005KT NSW SCT030 RMK PDW
       
TAF SBFZ 160100Z 1606/1706 18005KT 8000 SCT015 TN25/1607Z TX29/1615Z 
     BECMG 1606/1608 BKN015 
     PROB40 
     TEMPO 1609/1611 6000 SHRA BKN015 
     TEMPO 1613/1614 3000 RA BKN010 
     BECMG 1614/1616 08011KT 
     BECMG 1700/1702 07006KT RMK PEU
       
TAF SBFI 160200Z 1606/1706 08005KT CAVOK TN23/1608Z TX34/1617Z 
     BECMG 1612/1614 01008KT 
     BECMG 1614/1616 9999 FEW035TCU 
     PROB40 
     TEMPO 1618/1619 VCTS FEW035CB 
     BECMG 1622/1624 12006KT CAVOK RMK PDW
       
TAF SBGO 152200Z 1600/1624 33004KT 9999 FEW040 FEW045TCU TN20/1608Z T X33/1618Z 
     PROB30 1600/1602 TS FEW040 FEW045CB 
     BECMG 1602/1603 CAVOK 
     BECMG 1607/1609 9999 FEW035 
     BECMG 1612/1614 02008KT 9999 SCT040 
     BECMG 1616/1517 SCT040 FEW045TCU 
     PROB30 1618/1623 TSRA SCT040 FEW045CB 
     BECMG 1619/1621 30007KT RMK PEJ
       
TAF SBGW 151500Z 1518/1606 08005KT 9999 FEW030 TX34/1518Z TN25/1606Z 
     PROB40 
     TEMPO 1518/1520 TSRA BKN030 FEW035CB 
     BECMG 1520/1522 FEW025 RMK PDJ
       
TAF SBIL 152200Z 1600/1612 08007KT 8000 SCT015 SCT020 TX27/1600Z TN24/1608Z 
     BECMG 1603/1604 27005KT RMK PEU
       
TAF SBIZ 152200Z 1600/1612 00000KT 9999 FEW015 TN24/1607Z TX27/1612Z 
     BECMG 1609/1611 09005KT RMK PEP
       
TAF SBIH 152200Z 1600/1612 03004KT 9999 FEW015 TN22/1606Z TX26/1612Z 
     BECMG 1609/1611 08005KT RMK PEP